sensor_id;sensor_type;location;lat;lon;timestamp;P1;durP1;ratioP1;P2;durP2;ratioP2
44248;SDS011;29923;48.718;9.272;2023-06-26T00:01:49;10.52;;;7.55;;
44248;SDS011;29923;48.718;9.272;2023-06-26T00:04:14;9.68;;;7.43;;
44248;SDS011;29923;48.718;9.272;2023-06-26T00:06:40;12.25;;;7.15;;
44248;SDS011;29923;48.718;9.272;2023-06-26T00:09:06;9.45;;;7.70;;
44248;SDS011;29923;48.718;9.272;2023-06-26T00:11:31;10.57;;;7.68;;
44248;SDS011;29923;48.718;9.272;2023-06-26T00:13:58;11.38;;;8.23;;
44248;SDS011;29923;48.718;9.272;2023-06-26T00:16:25;14.40;;;7.90;;
44248;SDS011;29923;48.718;9.272;2023-06-26T00:18:50;12.48;;;7.45;;
44248;SDS011;29923;48.718;9.272;2023-06-26T00:21:16;12.18;;;7.90;;
44248;SDS011;29923;48.718;9.272;2023-06-26T00:23:41;11.70;;;8.25;;
44248;SDS011;29923;48.718;9.272;2023-06-26T00:26:06;10.43;;;7.40;;
44248;SDS011;29923;48.718;9.272;2023-06-26T00:28:32;9.13;;;7.85;;
44248;SDS011;29923;48.718;9.272;2023-06-26T00:30:58;11.30;;;8.10;;
44248;SDS011;29923;48.718;9.272;2023-06-26T00:33:23;12.88;;;7.78;;
44248;SDS011;29923;48.718;9.272;2023-06-26T00:35:48;15.15;;;8.02;;
44248;SDS011;29923;48.718;9.272;2023-06-26T00:38:14;11.15;;;7.68;;
44248;SDS011;29923;48.718;9.272;2023-06-26T00:40:39;10.45;;;7.82;;
44248;SDS011;29923;48.718;9.272;2023-06-26T00:43:04;9.93;;;7.57;;
44248;SDS011;29923;48.718;9.272;2023-06-26T00:45:30;10.65;;;7.57;;
44248;SDS011;29923;48.718;9.272;2023-06-26T00:47:55;10.38;;;7.40;;
44248;SDS011;29923;48.718;9.272;2023-06-26T00:50:20;11.18;;;8.18;;
44248;SDS011;29923;48.718;9.272;2023-06-26T00:52:46;11.38;;;8.10;;
44248;SDS011;29923;48.718;9.272;2023-06-26T00:55:11;11.27;;;8.13;;
44248;SDS011;29923;48.718;9.272;2023-06-26T00:57:37;13.48;;;8.00;;
44248;SDS011;29923;48.718;9.272;2023-06-26T01:00:03;15.93;;;8.77;;
44248;SDS011;29923;48.718;9.272;2023-06-26T01:02:29;15.20;;;8.63;;
44248;SDS011;29923;48.718;9.272;2023-06-26T01:04:58;9.48;;;7.53;;
44248;SDS011;29923;48.718;9.272;2023-06-26T01:07:24;10.18;;;8.15;;
44248;SDS011;29923;48.718;9.272;2023-06-26T01:09:50;11.98;;;8.80;;
44248;SDS011;29923;48.718;9.272;2023-06-26T01:12:15;11.27;;;9.02;;
44248;SDS011;29923;48.718;9.272;2023-06-26T01:14:41;11.25;;;8.32;;
44248;SDS011;29923;48.718;9.272;2023-06-26T01:17:07;14.40;;;8.45;;
44248;SDS011;29923;48.718;9.272;2023-06-26T01:19:38;10.07;;;8.32;;
44248;SDS011;29923;48.718;9.272;2023-06-26T01:27:32;12.07;;;8.45;;
44248;SDS011;29923;48.718;9.272;2023-06-26T01:29:58;10.98;;;8.10;;
44248;SDS011;29923;48.718;9.272;2023-06-26T01:32:26;13.50;;;8.68;;
44248;SDS011;29923;48.718;9.272;2023-06-26T01:34:51;10.95;;;8.63;;
44248;SDS011;29923;48.718;9.272;2023-06-26T01:37:17;11.52;;;8.90;;
44248;SDS011;29923;48.718;9.272;2023-06-26T01:39:42;11.93;;;8.50;;
44248;SDS011;29923;48.718;9.272;2023-06-26T01:42:07;14.85;;;8.80;;
44248;SDS011;29923;48.718;9.272;2023-06-26T01:44:35;15.75;;;8.68;;
44248;SDS011;29923;48.718;9.272;2023-06-26T01:47:05;10.57;;;8.20;;
44248;SDS011;29923;48.718;9.272;2023-06-26T01:55:10;15.95;;;10.07;;
44248;SDS011;29923;48.718;9.272;2023-06-26T01:57:40;15.35;;;8.20;;
44248;SDS011;29923;48.718;9.272;2023-06-26T02:00:06;10.55;;;7.75;;
44248;SDS011;29923;48.718;9.272;2023-06-26T02:02:35;11.43;;;8.43;;
44248;SDS011;29923;48.718;9.272;2023-06-26T02:05:00;15.60;;;8.35;;
44248;SDS011;29923;48.718;9.272;2023-06-26T02:07:26;11.60;;;8.98;;
44248;SDS011;29923;48.718;9.272;2023-06-26T02:09:51;15.70;;;8.60;;
44248;SDS011;29923;48.718;9.272;2023-06-26T02:12:16;11.48;;;8.77;;
44248;SDS011;29923;48.718;9.272;2023-06-26T02:14:42;13.15;;;8.93;;
44248;SDS011;29923;48.718;9.272;2023-06-26T02:17:07;10.60;;;8.38;;
44248;SDS011;29923;48.718;9.272;2023-06-26T02:19:33;14.48;;;7.80;;
44248;SDS011;29923;48.718;9.272;2023-06-26T02:21:59;13.05;;;8.63;;
44248;SDS011;29923;48.718;9.272;2023-06-26T02:24:24;13.73;;;8.48;;
44248;SDS011;29923;48.718;9.272;2023-06-26T02:26:50;11.38;;;8.02;;
44248;SDS011;29923;48.718;9.272;2023-06-26T02:29:15;11.25;;;8.50;;
44248;SDS011;29923;48.718;9.272;2023-06-26T02:31:40;14.73;;;8.13;;
44248;SDS011;29923;48.718;9.272;2023-06-26T02:34:06;9.82;;;8.02;;
44248;SDS011;29923;48.718;9.272;2023-06-26T02:36:31;11.85;;;8.90;;
44248;SDS011;29923;48.718;9.272;2023-06-26T02:38:57;12.50;;;7.97;;
44248;SDS011;29923;48.718;9.272;2023-06-26T02:41:22;10.40;;;8.50;;
44248;SDS011;29923;48.718;9.272;2023-06-26T02:43:47;10.13;;;7.85;;
44248;SDS011;29923;48.718;9.272;2023-06-26T02:46:13;9.55;;;7.80;;
44248;SDS011;29923;48.718;9.272;2023-06-26T02:48:38;12.00;;;8.05;;
44248;SDS011;29923;48.718;9.272;2023-06-26T02:51:03;13.55;;;7.90;;
44248;SDS011;29923;48.718;9.272;2023-06-26T02:53:29;11.15;;;8.77;;
44248;SDS011;29923;48.718;9.272;2023-06-26T02:55:54;10.90;;;8.30;;
44248;SDS011;29923;48.718;9.272;2023-06-26T02:58:19;15.10;;;8.27;;
44248;SDS011;29923;48.718;9.272;2023-06-26T03:00:45;14.20;;;8.23;;
44248;SDS011;29923;48.718;9.272;2023-06-26T03:03:10;10.23;;;7.68;;
44248;SDS011;29923;48.718;9.272;2023-06-26T03:05:35;10.10;;;7.47;;
44248;SDS011;29923;48.718;9.272;2023-06-26T03:08:04;14.43;;;7.97;;
44248;SDS011;29923;48.718;9.272;2023-06-26T03:10:30;10.52;;;8.82;;
44248;SDS011;29923;48.718;9.272;2023-06-26T03:12:55;11.00;;;8.10;;
44248;SDS011;29923;48.718;9.272;2023-06-26T03:15:21;12.38;;;7.90;;
44248;SDS011;29923;48.718;9.272;2023-06-26T03:17:46;16.08;;;8.73;;
44248;SDS011;29923;48.718;9.272;2023-06-26T03:20:11;14.15;;;8.90;;
44248;SDS011;29923;48.718;9.272;2023-06-26T03:22:37;13.38;;;8.57;;
44248;SDS011;29923;48.718;9.272;2023-06-26T03:25:02;10.60;;;8.57;;
44248;SDS011;29923;48.718;9.272;2023-06-26T03:27:28;13.23;;;8.32;;
44248;SDS011;29923;48.718;9.272;2023-06-26T03:29:53;13.75;;;9.07;;
44248;SDS011;29923;48.718;9.272;2023-06-26T03:32:19;16.10;;;8.82;;
44248;SDS011;29923;48.718;9.272;2023-06-26T03:34:44;12.18;;;8.90;;
44248;SDS011;29923;48.718;9.272;2023-06-26T03:37:10;14.38;;;8.45;;
44248;SDS011;29923;48.718;9.272;2023-06-26T03:39:35;11.23;;;8.23;;
44248;SDS011;29923;48.718;9.272;2023-06-26T03:42:01;12.63;;;8.23;;
44248;SDS011;29923;48.718;9.272;2023-06-26T03:44:27;10.80;;;8.93;;
44248;SDS011;29923;48.718;9.272;2023-06-26T03:46:52;13.30;;;9.13;;
44248;SDS011;29923;48.718;9.272;2023-06-26T03:49:18;11.73;;;8.35;;
44248;SDS011;29923;48.718;9.272;2023-06-26T03:51:43;12.48;;;8.82;;
44248;SDS011;29923;48.718;9.272;2023-06-26T03:54:09;12.80;;;9.52;;
44248;SDS011;29923;48.718;9.272;2023-06-26T03:56:35;12.15;;;9.27;;
44248;SDS011;29923;48.718;9.272;2023-06-26T03:59:00;12.80;;;9.35;;
44248;SDS011;29923;48.718;9.272;2023-06-26T04:01:25;12.20;;;9.10;;
44248;SDS011;29923;48.718;9.272;2023-06-26T04:03:51;18.80;;;9.73;;
44248;SDS011;29923;48.718;9.272;2023-06-26T04:06:16;16.40;;;8.90;;
44248;SDS011;29923;48.718;9.272;2023-06-26T04:08:42;12.32;;;9.05;;
44248;SDS011;29923;48.718;9.272;2023-06-26T04:11:07;13.45;;;9.88;;
44248;SDS011;29923;48.718;9.272;2023-06-26T04:13:33;14.35;;;9.20;;
44248;SDS011;29923;48.718;9.272;2023-06-26T04:15:58;18.55;;;9.30;;
44248;SDS011;29923;48.718;9.272;2023-06-26T04:18:23;12.02;;;9.98;;
44248;SDS011;29923;48.718;9.272;2023-06-26T04:23:33;13.25;;;9.13;;
44248;SDS011;29923;48.718;9.272;2023-06-26T04:25:59;12.15;;;8.55;;
44248;SDS011;29923;48.718;9.272;2023-06-26T04:28:24;12.02;;;9.80;;
44248;SDS011;29923;48.718;9.272;2023-06-26T04:30:50;12.82;;;10.50;;
44248;SDS011;29923;48.718;9.272;2023-06-26T04:33:15;14.35;;;9.70;;
44248;SDS011;29923;48.718;9.272;2023-06-26T04:35:41;16.67;;;10.50;;
44248;SDS011;29923;48.718;9.272;2023-06-26T04:38:06;13.00;;;9.88;;
44248;SDS011;29923;48.718;9.272;2023-06-26T04:40:31;13.50;;;9.32;;
44248;SDS011;29923;48.718;9.272;2023-06-26T04:42:57;13.10;;;9.38;;
44248;SDS011;29923;48.718;9.272;2023-06-26T04:45:22;11.60;;;9.13;;
44248;SDS011;29923;48.718;9.272;2023-06-26T04:47:47;15.43;;;9.30;;
44248;SDS011;29923;48.718;9.272;2023-06-26T04:50:13;13.65;;;9.30;;
44248;SDS011;29923;48.718;9.272;2023-06-26T04:52:38;11.85;;;9.07;;
44248;SDS011;29923;48.718;9.272;2023-06-26T04:55:04;9.55;;;8.55;;
44248;SDS011;29923;48.718;9.272;2023-06-26T04:57:29;12.52;;;9.25;;
44248;SDS011;29923;48.718;9.272;2023-06-26T04:59:55;13.55;;;9.00;;
44248;SDS011;29923;48.718;9.272;2023-06-26T05:02:21;12.98;;;8.82;;
44248;SDS011;29923;48.718;9.272;2023-06-26T05:04:46;12.32;;;8.02;;
44248;SDS011;29923;48.718;9.272;2023-06-26T05:07:12;10.90;;;8.45;;
44248;SDS011;29923;48.718;9.272;2023-06-26T05:09:37;11.68;;;8.32;;
44248;SDS011;29923;48.718;9.272;2023-06-26T05:12:03;11.50;;;8.55;;
44248;SDS011;29923;48.718;9.272;2023-06-26T05:14:28;16.05;;;8.00;;
44248;SDS011;29923;48.718;9.272;2023-06-26T05:16:54;9.32;;;7.50;;
44248;SDS011;29923;48.718;9.272;2023-06-26T05:19:19;10.10;;;8.02;;
44248;SDS011;29923;48.718;9.272;2023-06-26T05:21:44;10.65;;;7.15;;
44248;SDS011;29923;48.718;9.272;2023-06-26T05:24:12;10.63;;;8.10;;
44248;SDS011;29923;48.718;9.272;2023-06-26T05:26:39;12.63;;;8.50;;
44248;SDS011;29923;48.718;9.272;2023-06-26T05:29:04;11.77;;;8.45;;
44248;SDS011;29923;48.718;9.272;2023-06-26T05:31:33;8.43;;;7.40;;
44248;SDS011;29923;48.718;9.272;2023-06-26T05:34:00;12.93;;;7.88;;
44248;SDS011;29923;48.718;9.272;2023-06-26T05:36:28;17.38;;;7.80;;
44248;SDS011;29923;48.718;9.272;2023-06-26T05:38:54;14.68;;;8.15;;
44248;SDS011;29923;48.718;9.272;2023-06-26T05:41:21;11.57;;;7.78;;
44248;SDS011;29923;48.718;9.272;2023-06-26T05:43:47;12.82;;;7.88;;
44248;SDS011;29923;48.718;9.272;2023-06-26T05:46:12;12.75;;;7.90;;
44248;SDS011;29923;48.718;9.272;2023-06-26T05:48:37;13.70;;;7.68;;
44248;SDS011;29923;48.718;9.272;2023-06-26T05:51:03;16.90;;;7.40;;
44248;SDS011;29923;48.718;9.272;2023-06-26T05:53:29;10.45;;;7.47;;
44248;SDS011;29923;48.718;9.272;2023-06-26T05:55:55;14.10;;;7.55;;
44248;SDS011;29923;48.718;9.272;2023-06-26T05:58:20;14.68;;;7.90;;
44248;SDS011;29923;48.718;9.272;2023-06-26T06:00:46;10.23;;;7.75;;
44248;SDS011;29923;48.718;9.272;2023-06-26T06:03:12;11.63;;;7.20;;
44248;SDS011;29923;48.718;9.272;2023-06-26T06:05:37;9.57;;;6.82;;
44248;SDS011;29923;48.718;9.272;2023-06-26T06:08:03;16.02;;;7.18;;
44248;SDS011;29923;48.718;9.272;2023-06-26T06:10:28;10.70;;;6.93;;
44248;SDS011;29923;48.718;9.272;2023-06-26T06:12:54;12.80;;;6.43;;
44248;SDS011;29923;48.718;9.272;2023-06-26T06:15:19;17.63;;;7.38;;
44248;SDS011;29923;48.718;9.272;2023-06-26T06:17:45;9.70;;;7.35;;
44248;SDS011;29923;48.718;9.272;2023-06-26T06:20:10;19.80;;;7.72;;
44248;SDS011;29923;48.718;9.272;2023-06-26T06:22:36;15.13;;;7.50;;
44248;SDS011;29923;48.718;9.272;2023-06-26T06:25:01;9.82;;;6.82;;
44248;SDS011;29923;48.718;9.272;2023-06-26T06:27:27;17.55;;;6.88;;
44248;SDS011;29923;48.718;9.272;2023-06-26T06:29:53;10.88;;;6.88;;
44248;SDS011;29923;48.718;9.272;2023-06-26T06:32:18;13.05;;;6.80;;
44248;SDS011;29923;48.718;9.272;2023-06-26T06:34:44;11.30;;;7.28;;
44248;SDS011;29923;48.718;9.272;2023-06-26T06:37:09;15.93;;;7.30;;
44248;SDS011;29923;48.718;9.272;2023-06-26T06:39:34;11.50;;;7.13;;
44248;SDS011;29923;48.718;9.272;2023-06-26T06:42:00;11.13;;;7.03;;
44248;SDS011;29923;48.718;9.272;2023-06-26T06:44:25;13.10;;;6.97;;
44248;SDS011;29923;48.718;9.272;2023-06-26T06:46:50;7.70;;;6.38;;
44248;SDS011;29923;48.718;9.272;2023-06-26T06:49:16;12.55;;;6.82;;
44248;SDS011;29923;48.718;9.272;2023-06-26T06:51:41;13.20;;;7.13;;
44248;SDS011;29923;48.718;9.272;2023-06-26T06:54:07;9.93;;;6.55;;
44248;SDS011;29923;48.718;9.272;2023-06-26T06:56:32;20.00;;;6.90;;
44248;SDS011;29923;48.718;9.272;2023-06-26T06:58:57;13.82;;;6.82;;
44248;SDS011;29923;48.718;9.272;2023-06-26T07:01:23;11.75;;;6.53;;
44248;SDS011;29923;48.718;9.272;2023-06-26T07:03:48;10.90;;;6.13;;
44248;SDS011;29923;48.718;9.272;2023-06-26T07:06:13;14.23;;;6.57;;
44248;SDS011;29923;48.718;9.272;2023-06-26T07:08:39;9.98;;;5.75;;
44248;SDS011;29923;48.718;9.272;2023-06-26T07:11:04;13.98;;;6.25;;
44248;SDS011;29923;48.718;9.272;2023-06-26T07:13:30;11.95;;;5.50;;
44248;SDS011;29923;48.718;9.272;2023-06-26T07:15:55;10.20;;;5.63;;
44248;SDS011;29923;48.718;9.272;2023-06-26T07:18:20;7.57;;;5.65;;
44248;SDS011;29923;48.718;9.272;2023-06-26T07:20:46;8.55;;;5.93;;
44248;SDS011;29923;48.718;9.272;2023-06-26T07:23:11;12.05;;;5.63;;
44248;SDS011;29923;48.718;9.272;2023-06-26T07:25:36;14.45;;;5.43;;
44248;SDS011;29923;48.718;9.272;2023-06-26T07:28:02;13.13;;;5.57;;
44248;SDS011;29923;48.718;9.272;2023-06-26T07:30:28;11.43;;;5.97;;
44248;SDS011;29923;48.718;9.272;2023-06-26T07:32:53;13.27;;;4.95;;
44248;SDS011;29923;48.718;9.272;2023-06-26T07:35:18;5.75;;;4.88;;
44248;SDS011;29923;48.718;9.272;2023-06-26T07:37:44;10.48;;;5.03;;
44248;SDS011;29923;48.718;9.272;2023-06-26T07:40:09;8.68;;;4.85;;
44248;SDS011;29923;48.718;9.272;2023-06-26T07:42:35;9.55;;;5.00;;
44248;SDS011;29923;48.718;9.272;2023-06-26T07:45:01;13.10;;;4.63;;
44248;SDS011;29923;48.718;9.272;2023-06-26T07:47:26;5.70;;;4.43;;
44248;SDS011;29923;48.718;9.272;2023-06-26T07:49:52;7.70;;;4.35;;
44248;SDS011;29923;48.718;9.272;2023-06-26T07:52:18;5.65;;;4.35;;
44248;SDS011;29923;48.718;9.272;2023-06-26T07:54:44;8.85;;;4.85;;
44248;SDS011;29923;48.718;9.272;2023-06-26T07:57:09;6.55;;;4.78;;
44248;SDS011;29923;48.718;9.272;2023-06-26T07:59:36;6.43;;;4.90;;
44248;SDS011;29923;48.718;9.272;2023-06-26T08:02:02;8.93;;;4.32;;
44248;SDS011;29923;48.718;9.272;2023-06-26T08:04:28;6.90;;;4.00;;
44248;SDS011;29923;48.718;9.272;2023-06-26T08:06:57;5.15;;;3.95;;
44248;SDS011;29923;48.718;9.272;2023-06-26T08:09:24;7.28;;;3.97;;
44248;SDS011;29923;48.718;9.272;2023-06-26T08:11:50;7.13;;;4.53;;
44248;SDS011;29923;48.718;9.272;2023-06-26T08:14:16;9.13;;;3.80;;
44248;SDS011;29923;48.718;9.272;2023-06-26T08:16:42;6.78;;;4.13;;
44248;SDS011;29923;48.718;9.272;2023-06-26T08:19:09;11.10;;;4.80;;
44248;SDS011;29923;48.718;9.272;2023-06-26T08:21:35;7.75;;;4.97;;
44248;SDS011;29923;48.718;9.272;2023-06-26T08:24:00;8.77;;;5.03;;
44248;SDS011;29923;48.718;9.272;2023-06-26T08:26:25;7.78;;;5.00;;
44248;SDS011;29923;48.718;9.272;2023-06-26T08:28:51;9.07;;;4.53;;
44248;SDS011;29923;48.718;9.272;2023-06-26T08:31:16;9.75;;;4.43;;
44248;SDS011;29923;48.718;9.272;2023-06-26T08:33:42;5.93;;;4.70;;
44248;SDS011;29923;48.718;9.272;2023-06-26T08:36:08;12.90;;;5.18;;
44248;SDS011;29923;48.718;9.272;2023-06-26T08:38:33;6.20;;;4.82;;
44248;SDS011;29923;48.718;9.272;2023-06-26T08:40:58;8.50;;;5.47;;
44248;SDS011;29923;48.718;9.272;2023-06-26T08:43:24;10.80;;;4.70;;
44248;SDS011;29923;48.718;9.272;2023-06-26T08:45:51;5.75;;;4.70;;
44248;SDS011;29923;48.718;9.272;2023-06-26T08:48:17;9.18;;;4.85;;
44248;SDS011;29923;48.718;9.272;2023-06-26T08:50:42;10.57;;;5.30;;
44248;SDS011;29923;48.718;9.272;2023-06-26T08:55:41;6.45;;;5.03;;
44248;SDS011;29923;48.718;9.272;2023-06-26T08:58:07;8.40;;;5.10;;
44248;SDS011;29923;48.718;9.272;2023-06-26T09:00:32;7.53;;;4.88;;
44248;SDS011;29923;48.718;9.272;2023-06-26T09:02:58;8.10;;;5.35;;
44248;SDS011;29923;48.718;9.272;2023-06-26T09:05:25;9.18;;;5.32;;
44248;SDS011;29923;48.718;9.272;2023-06-26T09:07:52;9.13;;;5.22;;
44248;SDS011;29923;48.718;9.272;2023-06-26T09:10:20;22.25;;;5.47;;
44248;SDS011;29923;48.718;9.272;2023-06-26T09:12:46;8.35;;;5.47;;
44248;SDS011;29923;48.718;9.272;2023-06-26T09:15:14;7.22;;;4.80;;
44248;SDS011;29923;48.718;9.272;2023-06-26T09:17:40;6.97;;;4.85;;
44248;SDS011;29923;48.718;9.272;2023-06-26T09:20:07;10.05;;;4.50;;
44248;SDS011;29923;48.718;9.272;2023-06-26T09:22:33;9.25;;;5.60;;
44248;SDS011;29923;48.718;9.272;2023-06-26T09:25:03;11.25;;;5.57;;
44248;SDS011;29923;48.718;9.272;2023-06-26T09:27:29;11.07;;;4.88;;
44248;SDS011;29923;48.718;9.272;2023-06-26T09:29:55;9.68;;;5.63;;
44248;SDS011;29923;48.718;9.272;2023-06-26T09:32:23;8.07;;;4.97;;
44248;SDS011;29923;48.718;9.272;2023-06-26T09:34:51;11.68;;;4.70;;
44248;SDS011;29923;48.718;9.272;2023-06-26T09:37:18;11.13;;;5.13;;
44248;SDS011;29923;48.718;9.272;2023-06-26T09:39:43;7.07;;;4.72;;
44248;SDS011;29923;48.718;9.272;2023-06-26T09:42:09;7.40;;;4.90;;
44248;SDS011;29923;48.718;9.272;2023-06-26T09:44:34;6.93;;;4.90;;
44248;SDS011;29923;48.718;9.272;2023-06-26T09:47:01;11.77;;;4.82;;
44248;SDS011;29923;48.718;9.272;2023-06-26T09:49:29;5.90;;;4.97;;
44248;SDS011;29923;48.718;9.272;2023-06-26T09:51:54;5.80;;;4.65;;
44248;SDS011;29923;48.718;9.272;2023-06-26T09:54:21;11.18;;;4.53;;
44248;SDS011;29923;48.718;9.272;2023-06-26T09:56:47;9.65;;;4.45;;
44248;SDS011;29923;48.718;9.272;2023-06-26T09:59:12;7.47;;;4.85;;
44248;SDS011;29923;48.718;9.272;2023-06-26T10:01:42;6.82;;;4.45;;
44248;SDS011;29923;48.718;9.272;2023-06-26T10:04:10;7.97;;;4.20;;
44248;SDS011;29923;48.718;9.272;2023-06-26T10:06:36;12.02;;;4.97;;
44248;SDS011;29923;48.718;9.272;2023-06-26T10:09:04;5.68;;;4.35;;
44248;SDS011;29923;48.718;9.272;2023-06-26T10:14:20;9.05;;;4.90;;
44248;SDS011;29923;48.718;9.272;2023-06-26T10:16:47;7.78;;;4.90;;
44248;SDS011;29923;48.718;9.272;2023-06-26T10:19:14;4.72;;;4.18;;
44248;SDS011;29923;48.718;9.272;2023-06-26T10:21:44;12.40;;;4.55;;
44248;SDS011;29923;48.718;9.272;2023-06-26T10:24:09;7.85;;;4.60;;
44248;SDS011;29923;48.718;9.272;2023-06-26T10:26:44;6.22;;;4.22;;
44248;SDS011;29923;48.718;9.272;2023-06-26T10:29:11;5.97;;;4.00;;
44248;SDS011;29923;48.718;9.272;2023-06-26T10:31:43;8.00;;;4.40;;
44248;SDS011;29923;48.718;9.272;2023-06-26T10:34:10;9.18;;;4.40;;
44248;SDS011;29923;48.718;9.272;2023-06-26T10:36:36;10.93;;;4.75;;
44248;SDS011;29923;48.718;9.272;2023-06-26T10:39:03;5.68;;;4.18;;
44248;SDS011;29923;48.718;9.272;2023-06-26T10:41:41;12.68;;;4.68;;
44248;SDS011;29923;48.718;9.272;2023-06-26T10:44:10;7.82;;;4.53;;
44248;SDS011;29923;48.718;9.272;2023-06-26T10:46:50;13.23;;;4.68;;
44248;SDS011;29923;48.718;9.272;2023-06-26T10:49:19;10.82;;;4.85;;
44248;SDS011;29923;48.718;9.272;2023-06-26T10:51:49;6.40;;;4.72;;
44248;SDS011;29923;48.718;9.272;2023-06-26T10:54:15;10.27;;;4.80;;
44248;SDS011;29923;48.718;9.272;2023-06-26T10:56:51;12.60;;;5.03;;
44248;SDS011;29923;48.718;9.272;2023-06-26T10:59:22;6.28;;;4.82;;
44248;SDS011;29923;48.718;9.272;2023-06-26T11:01:56;5.43;;;4.88;;
44248;SDS011;29923;48.718;9.272;2023-06-26T11:05:04;12.32;;;4.95;;
44248;SDS011;29923;48.718;9.272;2023-06-26T11:07:20;6.00;;;4.95;;
44248;SDS011;29923;48.718;9.272;2023-06-26T11:10:08;17.25;;;5.63;;
44248;SDS011;29923;48.718;9.272;2023-06-26T11:12:34;6.50;;;5.13;;
44248;SDS011;29923;48.718;9.272;2023-06-26T11:15:01;11.65;;;5.18;;
44248;SDS011;29923;48.718;9.272;2023-06-26T11:17:27;7.20;;;4.85;;
44248;SDS011;29923;48.718;9.272;2023-06-26T11:19:53;6.55;;;5.20;;
44248;SDS011;29923;48.718;9.272;2023-06-26T11:22:20;13.43;;;5.20;;
44248;SDS011;29923;48.718;9.272;2023-06-26T11:24:46;8.93;;;5.13;;
44248;SDS011;29923;48.718;9.272;2023-06-26T11:27:12;15.23;;;6.22;;
44248;SDS011;29923;48.718;9.272;2023-06-26T11:29:37;6.35;;;5.45;;
44248;SDS011;29923;48.718;9.272;2023-06-26T11:32:03;10.05;;;4.70;;
44248;SDS011;29923;48.718;9.272;2023-06-26T11:34:30;7.82;;;4.78;;
44248;SDS011;29923;48.718;9.272;2023-06-26T11:36:56;5.82;;;5.07;;
44248;SDS011;29923;48.718;9.272;2023-06-26T11:39:22;10.43;;;5.13;;
44248;SDS011;29923;48.718;9.272;2023-06-26T11:41:48;8.73;;;5.45;;
44248;SDS011;29923;48.718;9.272;2023-06-26T11:44:13;10.10;;;5.13;;
44248;SDS011;29923;48.718;9.272;2023-06-26T11:46:44;6.50;;;5.18;;
44248;SDS011;29923;48.718;9.272;2023-06-26T11:49:10;9.48;;;5.30;;
44248;SDS011;29923;48.718;9.272;2023-06-26T11:51:35;9.13;;;5.40;;
44248;SDS011;29923;48.718;9.272;2023-06-26T11:54:01;7.30;;;4.75;;
44248;SDS011;29923;48.718;9.272;2023-06-26T11:56:30;7.22;;;4.80;;
44248;SDS011;29923;48.718;9.272;2023-06-26T11:58:56;12.60;;;5.38;;
44248;SDS011;29923;48.718;9.272;2023-06-26T12:04:04;9.90;;;5.45;;
44248;SDS011;29923;48.718;9.272;2023-06-26T12:06:34;8.68;;;5.32;;
44248;SDS011;29923;48.718;9.272;2023-06-26T12:09:03;12.13;;;5.32;;
44248;SDS011;29923;48.718;9.272;2023-06-26T12:11:30;7.03;;;5.18;;
44248;SDS011;29923;48.718;9.272;2023-06-26T12:13:55;11.48;;;4.93;;
44248;SDS011;29923;48.718;9.272;2023-06-26T12:16:21;9.75;;;4.85;;
44248;SDS011;29923;48.718;9.272;2023-06-26T12:18:47;7.80;;;4.32;;
44248;SDS011;29923;48.718;9.272;2023-06-26T12:24:20;6.75;;;4.82;;
44248;SDS011;29923;48.718;9.272;2023-06-26T12:26:48;13.95;;;5.10;;
44248;SDS011;29923;48.718;9.272;2023-06-26T12:29:19;9.05;;;5.32;;
44248;SDS011;29923;48.718;9.272;2023-06-26T12:31:46;7.82;;;5.05;;
44248;SDS011;29923;48.718;9.272;2023-06-26T12:34:15;7.55;;;5.10;;
44248;SDS011;29923;48.718;9.272;2023-06-26T12:36:45;7.78;;;4.82;;
44248;SDS011;29923;48.718;9.272;2023-06-26T12:39:15;15.38;;;5.07;;
44248;SDS011;29923;48.718;9.272;2023-06-26T12:41:45;8.52;;;5.05;;
44248;SDS011;29923;48.718;9.272;2023-06-26T12:44:20;5.68;;;4.82;;
44248;SDS011;29923;48.718;9.272;2023-06-26T12:46:57;6.03;;;4.97;;
44248;SDS011;29923;48.718;9.272;2023-06-26T12:49:44;7.07;;;5.00;;
44248;SDS011;29923;48.718;9.272;2023-06-26T12:52:12;9.23;;;5.28;;
44248;SDS011;29923;48.718;9.272;2023-06-26T12:54:39;9.95;;;5.25;;
44248;SDS011;29923;48.718;9.272;2023-06-26T12:57:10;8.00;;;5.60;;
44248;SDS011;29923;48.718;9.272;2023-06-26T12:59:46;9.57;;;4.82;;
44248;SDS011;29923;48.718;9.272;2023-06-26T13:02:11;9.95;;;5.00;;
44248;SDS011;29923;48.718;9.272;2023-06-26T13:04:37;12.50;;;4.90;;
44248;SDS011;29923;48.718;9.272;2023-06-26T13:07:06;9.60;;;4.88;;
44248;SDS011;29923;48.718;9.272;2023-06-26T13:09:32;10.25;;;5.32;;
44248;SDS011;29923;48.718;9.272;2023-06-26T13:11:58;7.60;;;4.93;;
44248;SDS011;29923;48.718;9.272;2023-06-26T13:14:24;12.15;;;5.35;;
44248;SDS011;29923;48.718;9.272;2023-06-26T13:16:49;10.10;;;4.63;;
44248;SDS011;29923;48.718;9.272;2023-06-26T13:19:14;7.25;;;5.10;;
44248;SDS011;29923;48.718;9.272;2023-06-26T13:21:42;12.63;;;5.03;;
44248;SDS011;29923;48.718;9.272;2023-06-26T13:24:08;11.90;;;5.10;;
44248;SDS011;29923;48.718;9.272;2023-06-26T13:26:34;12.38;;;4.50;;
44248;SDS011;29923;48.718;9.272;2023-06-26T13:28:59;7.45;;;4.95;;
44248;SDS011;29923;48.718;9.272;2023-06-26T13:31:24;12.60;;;5.10;;
44248;SDS011;29923;48.718;9.272;2023-06-26T13:33:50;9.48;;;4.85;;
44248;SDS011;29923;48.718;9.272;2023-06-26T13:36:17;6.40;;;5.47;;
44248;SDS011;29923;48.718;9.272;2023-06-26T13:38:42;11.77;;;4.88;;
44248;SDS011;29923;48.718;9.272;2023-06-26T13:41:08;11.13;;;5.95;;
44248;SDS011;29923;48.718;9.272;2023-06-26T13:43:33;11.40;;;5.20;;
44248;SDS011;29923;48.718;9.272;2023-06-26T13:45:58;12.57;;;5.18;;
44248;SDS011;29923;48.718;9.272;2023-06-26T13:48:25;6.30;;;5.07;;
44248;SDS011;29923;48.718;9.272;2023-06-26T13:50:51;10.55;;;4.85;;
44248;SDS011;29923;48.718;9.272;2023-06-26T13:53:16;15.85;;;4.82;;
44248;SDS011;29923;48.718;9.272;2023-06-26T13:55:42;5.90;;;4.28;;
44248;SDS011;29923;48.718;9.272;2023-06-26T13:58:08;14.32;;;4.90;;
44248;SDS011;29923;48.718;9.272;2023-06-26T14:00:33;8.13;;;4.75;;
44248;SDS011;29923;48.718;9.272;2023-06-26T14:03:00;14.68;;;4.13;;
44248;SDS011;29923;48.718;9.272;2023-06-26T14:05:25;10.00;;;4.97;;
44248;SDS011;29923;48.718;9.272;2023-06-26T14:07:51;10.95;;;4.47;;
44248;SDS011;29923;48.718;9.272;2023-06-26T14:10:21;7.03;;;4.35;;
44248;SDS011;29923;48.718;9.272;2023-06-26T14:12:47;16.38;;;4.57;;
44248;SDS011;29923;48.718;9.272;2023-06-26T14:15:12;17.25;;;3.67;;
44248;SDS011;29923;48.718;9.272;2023-06-26T14:17:38;5.50;;;4.47;;
44248;SDS011;29923;48.718;9.272;2023-06-26T14:20:05;10.32;;;4.60;;
44248;SDS011;29923;48.718;9.272;2023-06-26T14:22:33;5.38;;;3.88;;
44248;SDS011;29923;48.718;9.272;2023-06-26T14:24:59;8.02;;;4.00;;
44248;SDS011;29923;48.718;9.272;2023-06-26T14:27:24;5.45;;;3.90;;
44248;SDS011;29923;48.718;9.272;2023-06-26T14:29:49;12.48;;;4.43;;
44248;SDS011;29923;48.718;9.272;2023-06-26T14:32:15;12.07;;;4.10;;
44248;SDS011;29923;48.718;9.272;2023-06-26T14:34:40;5.97;;;4.25;;
44248;SDS011;29923;48.718;9.272;2023-06-26T14:37:05;6.78;;;4.03;;
44248;SDS011;29923;48.718;9.272;2023-06-26T14:39:31;4.95;;;3.70;;
44248;SDS011;29923;48.718;9.272;2023-06-26T14:41:56;5.05;;;3.45;;
44248;SDS011;29923;48.718;9.272;2023-06-26T14:44:21;4.72;;;3.28;;
44248;SDS011;29923;48.718;9.272;2023-06-26T14:46:47;6.03;;;3.28;;
44248;SDS011;29923;48.718;9.272;2023-06-26T14:49:12;5.93;;;3.20;;
44248;SDS011;29923;48.718;9.272;2023-06-26T14:51:38;11.05;;;3.22;;
44248;SDS011;29923;48.718;9.272;2023-06-26T14:54:04;7.18;;;3.40;;
44248;SDS011;29923;48.718;9.272;2023-06-26T14:56:30;9.00;;;3.30;;
44248;SDS011;29923;48.718;9.272;2023-06-26T14:58:56;10.50;;;2.92;;